Time;durP1;ratioP1;P1;durP2;ratioP2;P2;SDS_P1;SDS_P2;PMS_P1;PMS_P2;Temp;Humidity;BMP_temperature;BMP_pressure;BME280_temperature;BME280_humidity;BME280_pressure;Samples;Min_cycle;Max_cycle;Signal;HPM_P1;HPM_P2
2023/08/07 00:04:24;;;;;;;5.05;2.08;;;9.90;92.80;;;;;;4767004;30;20092;-88
2023/08/07 00:07:20;;;;;;;4.78;2.10;;;9.90;92.10;;;;;;4764051;30;20128;-92
2023/08/07 00:10:14;;;;;;;5.95;2.30;;;9.80;92.50;;;;;;4768746;30;20047;-90
2023/08/07 00:34:11;;;;;;;6.25;2.33;;;9.90;94.70;;;;;;4662890;30;20029;-90
2023/08/07 00:36:49;;;;;;;5.60;2.65;;;9.90;94.60;;;;;;4691135;30;20308;-91
2023/08/07 00:39:18;;;;;;;5.97;2.17;;;9.90;95.50;;;;;;4791361;29;20421;-91
2023/08/07 00:42:28;;;;;;;5.57;2.28;;;9.90;94.60;;;;;;4788201;29;20069;-90
2023/08/07 00:44:54;;;;;;;5.10;1.90;;;9.90;95.20;;;;;;4813824;29;20132;-87
2023/08/07 00:54:31;;;;;;;5.65;2.20;;;10.20;98.00;;;;;;4842506;29;20123;-91
2023/08/07 01:00:37;;;;;;;5.40;2.05;;;10.20;98.00;;;;;;4843718;29;20106;-88
2023/08/07 01:03:11;;;;;;;7.57;2.13;;;10.20;98.00;;;;;;4935154;29;20044;-89
2023/08/07 01:22:12;;;;;;;5.78;2.67;;;10.10;96.30;;;;;;4919374;29;20487;-88
2023/08/07 01:30:42;;;;;;;5.63;2.28;;;10.10;96.30;;;;;;4839928;29;20120;-88
2023/08/07 01:33:43;;;;;;;5.82;2.50;;;10.00;95.20;;;;;;4907277;29;20043;-88
2023/08/07 01:36:25;;;;;;;8.32;2.50;;;9.90;94.60;;;;;;4928214;29;20079;-89
2023/08/07 01:39:20;;;;;;;6.10;2.65;;;9.80;93.70;;;;;;4937323;29;20027;-89
2023/08/07 01:45:34;;;;;;;7.20;2.60;;;9.70;93.00;;;;;;4939130;29;20110;-90
2023/08/07 01:48:34;;;;;;;8.27;2.97;;;9.60;92.40;;;;;;4922712;29;20488;-89
2023/08/07 01:54:41;;;;;;;5.25;2.60;;;9.50;91.20;;;;;;4825207;29;20035;-90
2023/08/07 02:04:24;;;;;;;5.82;2.83;;;9.40;90.10;;;;;;4588150;30;20401;-88
2023/08/07 02:06:49;;;;;;;5.28;2.40;;;9.30;89.60;;;;;;4689421;30;20037;-89
2023/08/07 02:13:05;;;;;;;6.50;3.17;;;9.30;89.30;;;;;;4811286;29;20335;-89
2023/08/07 02:19:37;;;;;;;7.20;2.80;;;9.20;88.80;;;;;;4813028;29;20031;-89
2023/08/07 02:22:07;;;;;;;;;;;9.20;88.40;;;;;;4821915;29;20433;-90
2023/08/07 02:24:42;;;;;;;;;;;;;;;;;;;;;
2023/08/07 02:30:51;;;;;;;6.65;2.90;;;9.10;88.30;;;;;;4768923;30;20047;-89
2023/08/07 02:33:47;;;;;;;9.45;3.30;;;9.20;87.90;;;;;;4720115;30;20047;-90
2023/08/07 02:36:13;;;;;;;7.07;3.10;;;9.30;89.50;;;;;;4734105;30;20061;-86
2023/08/07 02:39:02;;;;;;;6.68;2.42;;;9.40;90.10;;;;;;4735132;30;20036;-90
2023/08/07 02:41:50;;;;;;;7.18;3.05;;;9.50;90.70;;;;;;4799909;29;20112;-89
2023/08/07 02:48:03;;;;;;;7.82;3.15;;;9.60;92.20;;;;;;4831669;29;20087;-87
2023/08/07 02:56:48;;;;;;;9.10;2.72;;;9.60;93.80;;;;;;4884274;29;20068;-90
2023/08/07 03:12:21;;;;;;;5.97;2.78;;;9.60;94.60;;;;;;4827666;29;20034;-91
2023/08/07 03:19:04;;;;;;;;;;;;;;;;;;;;;
2023/08/07 03:22:04;;;;;;;5.72;2.72;;;9.40;93.80;;;;;;4800540;29;20049;-91
2023/08/07 03:38:17;;;;;;;5.68;2.70;;;9.30;94.30;;;;;;4809541;29;20683;-88
2023/08/07 03:40:45;;;;;;;5.55;2.85;;;9.30;93.60;;;;;;4800843;29;20047;-89
2023/08/07 03:43:11;;;;;;;9.45;2.70;;;9.20;92.90;;;;;;4803717;29;20104;-89
2023/08/07 03:45:37;;;;;;;6.38;2.75;;;9.10;92.80;;;;;;4853907;29;20525;-87
2023/08/07 03:48:45;;;;;;;7.20;3.15;;;9.00;92.60;;;;;;4865752;29;20037;-90
2023/08/07 03:51:16;;;;;;;10.30;3.03;;;9.00;92.90;;;;;;4867960;29;20124;-89
2023/08/07 03:54:35;;;;;;;;;;;;;;;;;;;;;
2023/08/07 03:57:08;;;;;;;5.90;3.00;;;8.80;91.70;;;;;;4880395;29;20057;-89
2023/08/07 03:59:36;;;;;;;6.65;3.22;;;8.70;90.30;;;;;;4922536;29;20083;-89
2023/08/07 04:02:25;;;;;;;6.78;2.92;;;8.70;90.60;;;;;;4921947;29;20039;-89
2023/08/07 04:07:58;;;;;;;8.20;3.20;;;8.60;90.40;;;;;;4852831;29;20477;-87
2023/08/07 04:41:14;;;;;;;8.80;3.05;;;8.90;91.80;;;;;;4773886;29;20031;-93
2023/08/07 04:47:45;;;;;;;6.80;3.10;;;9.00;93.10;;;;;;4848479;29;20032;-93
2023/08/07 05:30:57;;;;;;;8.80;3.47;;;9.40;95.30;;;;;;4924288;29;20091;-92
2023/08/07 05:57:45;;;;;;;6.45;2.58;;;10.10;98.00;;;;;;4914745;29;20063;-90
2023/08/07 06:01:14;;;;;;;6.70;3.22;;;10.30;98.00;;;;;;4917415;29;20088;-91
2023/08/07 06:11:48;;;;;;;6.82;2.58;;;10.50;98.00;;;;;;4917813;29;20047;-91
2023/08/07 06:18:23;;;;;;;8.75;2.83;;;10.70;98.00;;;;;;4850366;29;20116;-90
2023/08/07 06:36:20;;;;;;;9.27;2.88;;;11.30;98.00;;;;;;4648477;30;20468;-91
2023/08/07 06:59:38;;;;;;;5.43;3.10;;;11.40;98.00;;;;;;4630704;31;20523;-89
2023/08/07 07:05:48;;;;;;;6.03;2.47;;;11.50;98.00;;;;;;4654099;30;20045;-91
2023/08/07 07:18:23;;;;;;;5.25;2.70;;;11.80;98.00;;;;;;4713703;30;20045;-91
2023/08/07 07:21:42;;;;;;;7.10;2.50;;;11.90;98.00;;;;;;4684676;30;20049;-93
2023/08/07 07:24:23;;;;;;;;;;;;;;;;;;;;;
2023/08/07 07:38:15;;;;;;;5.60;2.45;;;12.20;98.00;;;;;;4651298;30;20070;-92
2023/08/07 07:41:39;;;;;;;6.70;2.47;;;12.60;98.00;;;;;;4665802;30;20430;-93
2023/08/07 07:45:09;;;;;;;6.05;2.60;;;12.80;98.00;;;;;;4606271;31;20465;-93
2023/08/07 07:51:10;;;;;;;6.55;2.60;;;12.80;98.00;;;;;;4653590;30;20119;-93
2023/08/07 07:54:04;;;;;;;5.78;2.38;;;12.80;98.00;;;;;;4750938;30;20096;-93
2023/08/07 07:57:34;;;;;;;;;;;;;;;;;;;;;
2023/08/07 08:03:40;;;;;;;4.03;1.90;;;13.20;98.00;;;;;;4807987;29;20448;-93
2023/08/07 08:12:45;;;;;;;5.45;2.20;;;15.50;92.20;;;;;;4803174;29;20097;-88
2023/08/07 08:15:11;;;;;;;4.80;1.90;;;15.10;92.80;;;;;;4843197;29;20038;-89
2023/08/07 08:18:18;;;;;;;5.35;1.90;;;14.60;93.70;;;;;;4823841;29;20034;-94
2023/08/07 08:22:03;;;;;;;5.60;2.33;;;14.10;95.90;;;;;;4802902;29;20073;-94
2023/08/07 08:24:13;;;;;;;5.03;2.10;;;14.40;95.80;;;;;;4806567;29;20038;-91
2023/08/07 08:27:23;;;;;;;7.68;2.10;;;14.90;94.10;;;;;;4791090;29;20039;-90
2023/08/07 08:30:11;;;;;;;5.40;2.20;;;14.60;93.30;;;;;;4824682;29;20098;-92
2023/08/07 08:33:22;;;;;;;;;;;;;;;;;;;;;
2023/08/07 08:36:11;;;;;;;4.38;2.17;;;14.90;92.60;;;;;;4853948;29;20044;-91
2023/08/07 08:39:02;;;;;;;5.18;2.33;;;14.80;94.10;;;;;;4842813;29;20112;-93
2023/08/07 08:42:03;;;;;;;6.82;2.30;;;14.80;93.30;;;;;;4857451;29;20041;-89
2023/08/07 08:44:53;;;;;;;5.57;1.90;;;15.10;92.50;;;;;;4845821;29;20419;-91
2023/08/07 08:47:51;;;;;;;;;;;;;;;;;;;;;
2023/08/07 08:50:17;;;;;;;5.47;2.22;;;14.00;94.80;;;;;;4901026;29;20037;-91
2023/08/07 08:52:44;;;;;;;4.80;1.92;;;14.10;95.30;;;;;;4917053;29;20537;-91
2023/08/07 08:55:12;;;;;;;3.83;1.85;;;14.60;93.30;;;;;;4908085;29;20021;-91
2023/08/07 08:57:41;;;;;;;4.97;1.98;;;14.40;94.30;;;;;;4901725;29;20089;-92
2023/08/07 09:00:30;;;;;;;4.38;2.08;;;14.30;95.20;;;;;;4907508;29;20063;-92
2023/08/07 09:03:23;;;;;;;5.13;1.90;;;14.30;94.90;;;;;;4903922;29;20123;-92
2023/08/07 09:05:56;;;;;;;6.20;2.20;;;15.70;91.40;;;;;;4918309;29;20087;-91
2023/08/07 09:12:40;;;;;;;5.88;2.00;;;17.10;86.50;;;;;;4856654;29;20503;-93
2023/08/07 09:15:12;;;;;;;6.18;2.13;;;17.50;83.60;;;;;;4804709;29;20050;-92
2023/08/07 09:17:42;;;;;;;6.50;2.28;;;16.00;86.80;;;;;;4821545;29;20043;-89
2023/08/07 09:20:13;;;;;;;4.75;1.70;;;16.10;88.20;;;;;;4834030;29;20045;-89
2023/08/07 09:23:02;;;;;;;3.08;1.60;;;16.50;87.50;;;;;;4844315;29;20113;-93
2023/08/07 09:25:40;;;;;;;4.75;2.15;;;16.20;87.30;;;;;;4859109;29;20040;-89
2023/08/07 09:28:28;;;;;;;6.32;1.60;;;16.60;86.30;;;;;;4915754;29;20024;-92
2023/08/07 09:30:54;;;;;;;4.75;1.70;;;17.00;81.90;;;;;;4859863;29;20162;-89
2023/08/07 09:34:08;;;;;;;4.15;1.58;;;17.20;81.90;;;;;;4896243;29;20111;-92
2023/08/07 09:36:34;;;;;;;4.88;2.33;;;16.90;81.50;;;;;;4840670;29;20049;-92
2023/08/07 09:39:03;;;;;;;4.35;1.90;;;16.20;83.90;;;;;;4858288;29;20040;-92
2023/08/07 09:41:36;;;;;;;6.57;1.75;;;15.70;85.80;;;;;;4919070;29;20382;-90
2023/08/07 09:44:08;;;;;;;6.13;2.13;;;15.60;87.90;;;;;;4915001;29;20031;-91
2023/08/07 09:46:46;;;;;;;4.15;1.98;;;15.20;89.00;;;;;;4915841;29;20028;-91
2023/08/07 09:49:21;;;;;;;5.65;2.20;;;15.80;89.40;;;;;;4898384;29;20035;-91
2023/08/07 09:51:57;;;;;;;4.05;1.95;;;15.80;87.30;;;;;;4915293;29;20056;-92
2023/08/07 09:54:23;;;;;;;5.30;2.00;;;15.80;88.80;;;;;;4915711;29;20028;-89
2023/08/07 09:56:56;;;;;;;4.40;1.80;;;16.50;86.90;;;;;;4914102;29;20035;-89
2023/08/07 09:59:21;;;;;;;4.38;1.58;;;17.10;84.10;;;;;;4912831;29;20039;-89
2023/08/07 10:01:47;;;;;;;3.38;1.50;;;17.60;82.50;;;;;;4898052;29;20044;-90
2023/08/07 10:04:48;;;;;;;3.47;1.50;;;18.10;80.30;;;;;;4915263;29;20024;-91
2023/08/07 10:07:15;;;;;;;2.90;1.50;;;18.70;77.90;;;;;;4911553;29;20020;-90
2023/08/07 10:09:42;;;;;;;4.13;1.50;;;17.90;77.20;;;;;;4902469;29;20035;-90
2023/08/07 10:12:13;;;;;;;4.25;1.30;;;17.80;76.40;;;;;;4915190;29;20042;-91
2023/08/07 10:15:05;;;;;;;4.40;1.50;;;17.80;76.20;;;;;;4916365;29;20072;-92
2023/08/07 10:18:04;;;;;;;3.85;1.50;;;17.90;75.40;;;;;;4909260;29;20066;-93
2023/08/07 10:20:38;;;;;;;5.35;1.92;;;18.00;76.00;;;;;;4916631;29;20059;-93
2023/08/07 10:23:09;;;;;;;4.57;1.50;;;16.90;78.30;;;;;;4915482;29;20028;-89
2023/08/07 10:25:46;;;;;;;6.07;1.60;;;16.60;79.00;;;;;;4912348;29;20031;-88
2023/08/07 10:28:18;;;;;;;6.78;1.83;;;16.80;78.50;;;;;;4917920;29;20040;-87
2023/08/07 10:31:15;;;;;;;6.63;1.50;;;17.00;77.60;;;;;;4914630;29;20092;-90
2023/08/07 10:47:56;;;;;;;3.13;1.50;;;17.60;76.80;;;;;;4829820;29;20037;-92
2023/08/07 11:00:29;;;;;;;2.78;1.25;;;16.20;78.80;;;;;;4838207;29;20052;-89
2023/08/07 11:03:00;;;;;;;4.20;1.52;;;16.60;78.20;;;;;;4865523;29;20036;-93
2023/08/07 11:05:34;;;;;;;2.97;1.42;;;17.90;75.70;;;;;;4851255;29;20030;-92
2023/08/07 11:07:59;;;;;;;3.37;1.60;;;18.20;73.20;;;;;;4866963;29;20223;-90
2023/08/07 11:10:29;;;;;;;4.70;1.45;;;17.90;73.40;;;;;;4863554;29;20349;-91
2023/08/07 11:13:15;;;;;;;3.47;1.30;;;18.30;73.90;;;;;;4847453;29;20636;-91
2023/08/07 11:16:00;;;;;;;4.43;1.60;;;18.40;74.90;;;;;;4844952;29;20038;-91
2023/08/07 11:18:26;;;;;;;3.30;1.65;;;17.60;76.70;;;;;;4847823;29;20037;-91
2023/08/07 11:20:56;;;;;;;4.20;1.70;;;17.00;78.50;;;;;;4887251;29;20131;-88
2023/08/07 11:23:28;;;;;;;3.20;1.60;;;16.40;79.60;;;;;;4921391;29;20095;-92
2023/08/07 11:25:57;;;;;;;3.58;1.70;;;16.20;79.60;;;;;;4919635;29;20102;-92
2023/08/07 11:28:24;;;;;;;4.55;1.80;;;16.30;81.10;;;;;;4920082;29;20417;-90
2023/08/07 11:30:59;;;;;;;4.18;1.50;;;16.90;79.70;;;;;;4920517;29;20076;-89
2023/08/07 11:33:29;;;;;;;4.00;1.65;;;17.50;78.70;;;;;;4919867;29;20032;-92
2023/08/07 11:35:55;;;;;;;4.18;1.58;;;17.30;76.50;;;;;;4919500;29;20087;-89
2023/08/07 11:38:30;;;;;;;5.13;1.90;;;16.80;78.60;;;;;;4915701;29;20093;-89
2023/08/07 11:41:06;;;;;;;6.28;1.70;;;16.30;78.40;;;;;;4919616;29;20032;-88
2023/08/07 11:43:35;;;;;;;3.83;1.60;;;15.70;79.00;;;;;;4920787;29;20032;-90
2023/08/07 11:46:03;;;;;;;3.47;1.80;;;15.80;80.40;;;;;;4937586;29;20023;-90
2023/08/07 11:48:31;;;;;;;3.50;1.50;;;16.20;80.40;;;;;;4936017;29;20064;-88
2023/08/07 11:51:08;;;;;;;6.85;2.00;;;16.10;81.40;;;;;;4920428;29;20024;-88
2023/08/07 11:53:40;;;;;;;5.20;2.03;;;15.70;82.70;;;;;;4922080;29;20028;-90
2023/08/07 11:56:17;;;;;;;4.60;1.95;;;15.70;82.90;;;;;;4918812;29;20501;-89
2023/08/07 11:58:54;;;;;;;5.57;2.00;;;15.80;82.40;;;;;;4918057;29;20028;-91
2023/08/07 12:01:21;;;;;;;3.22;1.63;;;16.50;82.20;;;;;;4911347;29;20162;-89
2023/08/07 12:03:56;;;;;;;4.63;1.77;;;17.20;79.40;;;;;;4912115;29;20038;-89
2023/08/07 12:06:25;;;;;;;5.30;2.15;;;17.70;79.10;;;;;;4923751;29;20143;-91
2023/08/07 12:08:57;;;;;;;3.47;1.67;;;17.70;78.30;;;;;;4921442;29;20059;-89
2023/08/07 12:11:23;;;;;;;5.22;1.77;;;17.30;78.80;;;;;;4920952;29;20032;-89
2023/08/07 12:13:52;;;;;;;3.58;1.70;;;17.00;79.40;;;;;;4921248;29;20067;-90
2023/08/07 12:16:18;;;;;;;3.92;1.85;;;16.50;79.80;;;;;;4920747;29;20024;-91
2023/08/07 12:18:48;;;;;;;5.13;1.95;;;16.30;81.70;;;;;;4921529;29;20021;-90
2023/08/07 12:21:19;;;;;;;4.30;1.65;;;16.30;81.40;;;;;;4918371;29;20028;-90
2023/08/07 12:23:47;;;;;;;4.03;1.67;;;16.10;80.90;;;;;;4920358;29;20079;-89
2023/08/07 12:26:13;;;;;;;4.75;2.17;;;15.70;81.70;;;;;;4904827;29;20051;-90
2023/08/07 12:28:39;;;;;;;4.57;1.80;;;15.60;82.60;;;;;;4920705;29;20418;-92
2023/08/07 12:31:05;;;;;;;5.60;2.00;;;15.30;82.10;;;;;;4919057;29;20087;-90
2023/08/07 12:33:30;;;;;;;4.43;1.77;;;15.40;83.70;;;;;;4921367;29;20437;-89
2023/08/07 12:35:58;;;;;;;3.88;2.00;;;15.30;83.60;;;;;;4920176;29;20039;-89
2023/08/07 12:38:24;;;;;;;5.65;1.80;;;15.10;83.40;;;;;;4921380;29;20101;-89
2023/08/07 12:40:53;;;;;;;4.30;1.90;;;15.00;83.50;;;;;;4920219;29;20124;-91
2023/08/07 12:43:19;;;;;;;5.40;2.03;;;15.00;83.30;;;;;;4919914;29;20436;-90
2023/08/07 12:45:44;;;;;;;5.47;1.95;;;15.10;84.10;;;;;;4920180;29;20083;-87
2023/08/07 12:48:10;;;;;;;5.00;2.15;;;15.10;82.80;;;;;;4921246;29;20052;-88
2023/08/07 12:50:36;;;;;;;7.25;1.90;;;15.30;83.80;;;;;;4918566;29;20436;-88
2023/08/07 12:53:03;;;;;;;4.35;1.75;;;15.40;82.80;;;;;;4919706;29;20024;-90
2023/08/07 12:55:29;;;;;;;4.80;2.08;;;15.20;82.90;;;;;;4921026;29;20109;-88
2023/08/07 12:57:55;;;;;;;3.92;1.98;;;14.90;85.60;;;;;;4920961;29;20031;-91
2023/08/07 13:00:22;;;;;;;4.93;1.80;;;14.40;88.30;;;;;;4919781;29;20055;-90
2023/08/07 13:02:50;;;;;;;3.42;1.63;;;14.20;89.30;;;;;;4919781;29;20434;-88
2023/08/07 13:05:22;;;;;;;5.55;2.10;;;14.20;89.10;;;;;;4919611;29;20141;-88
2023/08/07 13:07:48;;;;;;;3.42;1.80;;;14.40;88.80;;;;;;4921251;29;20488;-86
2023/08/07 13:10:15;;;;;;;3.50;1.90;;;14.40;88.70;;;;;;4919173;29;20047;-89
2023/08/07 13:12:43;;;;;;;3.47;1.63;;;14.50;87.80;;;;;;4920001;29;20032;-89
2023/08/07 13:15:13;;;;;;;5.05;1.52;;;14.80;86.40;;;;;;4919805;29;20024;-88
2023/08/07 13:17:38;;;;;;;3.97;1.63;;;15.20;86.10;;;;;;4920240;29;20103;-88
2023/08/07 13:20:08;;;;;;;4.18;1.60;;;15.70;85.10;;;;;;4902754;29;20442;-88
2023/08/07 13:22:37;;;;;;;4.75;1.65;;;16.10;84.00;;;;;;4920555;29;20032;-89
2023/08/07 13:25:04;;;;;;;4.47;1.75;;;16.10;83.90;;;;;;4919386;29;20024;-88
2023/08/07 13:27:31;;;;;;;5.13;2.03;;;16.30;83.80;;;;;;4901411;29;20055;-88
2023/08/07 13:29:56;;;;;;;4.55;1.80;;;16.50;82.30;;;;;;4900378;29;20032;-88
2023/08/07 13:32:22;;;;;;;5.22;2.03;;;16.70;81.90;;;;;;4901596;29;20025;-87
2023/08/07 13:34:48;;;;;;;5.03;1.63;;;16.70;81.70;;;;;;4901487;29;20032;-88
2023/08/07 13:37:14;;;;;;;3.95;1.55;;;16.90;82.30;;;;;;4916764;29;20032;-88
2023/08/07 13:39:40;;;;;;;5.13;2.25;;;17.40;81.40;;;;;;4920317;29;20038;-87
2023/08/07 13:42:06;;;;;;;4.38;1.60;;;16.90;81.40;;;;;;4920125;29;20107;-86
2023/08/07 13:44:31;;;;;;;3.85;1.80;;;16.80;82.90;;;;;;4920189;29;20028;-87
2023/08/07 13:46:57;;;;;;;6.78;2.53;;;16.90;82.70;;;;;;4918844;29;20032;-88
2023/08/07 13:49:23;;;;;;;5.53;1.85;;;17.10;82.80;;;;;;4920088;29;20114;-87
2023/08/07 13:51:49;;;;;;;4.40;1.63;;;17.70;80.70;;;;;;4918117;29;20032;-88
2023/08/07 13:54:15;;;;;;;3.53;1.35;;;18.40;78.40;;;;;;4920084;29;20031;-87
2023/08/07 13:56:40;;;;;;;3.92;1.60;;;18.50;78.10;;;;;;4901902;29;20029;-87
2023/08/07 13:59:06;;;;;;;3.75;1.70;;;19.50;76.50;;;;;;4919802;29;20068;-89
2023/08/07 14:01:33;;;;;;;6.35;1.65;;;20.10;72.20;;;;;;4918195;29;20119;-89
2023/08/07 14:03:58;;;;;;;3.35;1.50;;;19.50;72.20;;;;;;4919015;29;20024;-89
2023/08/07 14:06:24;;;;;;;4.68;2.03;;;19.40;72.90;;;;;;4918658;29;20028;-88
2023/08/07 14:08:49;;;;;;;2.88;1.45;;;19.50;74.00;;;;;;4919273;29;20040;-89
2023/08/07 14:11:15;;;;;;;4.47;1.70;;;19.60;73.40;;;;;;4914582;29;20031;-89
2023/08/07 14:13:41;;;;;;;3.75;1.50;;;19.30;73.80;;;;;;4916321;29;20024;-89
2023/08/07 14:16:07;;;;;;;3.65;1.70;;;19.00;74.30;;;;;;4914238;29;20067;-89
2023/08/07 14:18:33;;;;;;;5.05;1.65;;;18.50;75.20;;;;;;4911368;29;20043;-88
2023/08/07 14:20:59;;;;;;;4.35;1.75;;;18.00;76.60;;;;;;4914650;29;20104;-89
2023/08/07 14:23:35;;;;;;;5.25;2.03;;;19.20;75.20;;;;;;4915784;29;20381;-88
2023/08/07 14:26:01;;;;;;;6.70;1.83;;;19.60;74.50;;;;;;4927200;29;20036;-87
2023/08/07 14:28:36;;;;;;;4.57;2.03;;;20.20;73.70;;;;;;4917087;29;20043;-87
2023/08/07 14:31:09;;;;;;;3.47;1.73;;;21.70;70.00;;;;;;4917380;29;20032;-86
2023/08/07 14:33:35;;;;;;;5.97;1.92;;;21.20;70.10;;;;;;4918744;29;20317;-86
2023/08/07 14:36:04;;;;;;;5.03;1.70;;;19.60;72.80;;;;;;4918343;29;20425;-87
2023/08/07 14:38:31;;;;;;;3.42;1.60;;;18.70;75.50;;;;;;4923008;29;20697;-87
2023/08/07 14:40:59;;;;;;;4.90;1.88;;;18.00;77.50;;;;;;4922542;29;20024;-87
2023/08/07 14:43:28;;;;;;;3.60;1.70;;;17.70;78.50;;;;;;4921261;29;20064;-87
2023/08/07 14:45:54;;;;;;;4.35;2.15;;;17.70;79.20;;;;;;4922367;29;20024;-86
2023/08/07 14:48:34;;;;;;;3.28;1.60;;;18.90;79.20;;;;;;4922882;29;20035;-87
2023/08/07 14:51:31;;;;;;;5.63;1.73;;;19.40;75.70;;;;;;4920901;29;20032;-87
2023/08/07 14:53:57;;;;;;;3.55;1.80;;;18.50;77.10;;;;;;4906171;29;20039;-87
2023/08/07 14:56:23;;;;;;;4.55;2.08;;;17.60;79.60;;;;;;4922945;29;20028;-87
2023/08/07 14:58:50;;;;;;;4.20;1.83;;;17.10;81.20;;;;;;4922014;29;20594;-86
2023/08/07 15:01:16;;;;;;;4.53;1.98;;;16.60;81.10;;;;;;4920367;29;20044;-88
2023/08/07 15:03:42;;;;;;;3.90;1.90;;;16.20;82.30;;;;;;4921265;29;20334;-88
2023/08/07 15:06:08;;;;;;;4.60;2.00;;;15.90;83.30;;;;;;4921721;29;20384;-88
2023/08/07 15:08:33;;;;;;;5.97;2.08;;;15.80;83.10;;;;;;4922125;29;20107;-88
2023/08/07 15:11:02;;;;;;;5.50;2.03;;;15.70;84.40;;;;;;4920577;29;20032;-88
2023/08/07 15:13:29;;;;;;;4.93;2.10;;;15.70;84.00;;;;;;4922772;29;20425;-88
2023/08/07 15:16:17;;;;;;;5.32;1.92;;;15.80;83.90;;;;;;4921069;29;20032;-88
2023/08/07 15:18:44;;;;;;;5.35;2.25;;;16.00;83.50;;;;;;4922554;29;20027;-87
2023/08/07 15:21:10;;;;;;;5.60;2.08;;;16.20;83.20;;;;;;4904607;29;20055;-86
2023/08/07 15:23:36;;;;;;;4.10;1.70;;;16.70;82.80;;;;;;4906030;29;20028;-88
2023/08/07 15:26:02;;;;;;;4.72;1.83;;;17.60;80.20;;;;;;4921462;29;20378;-89
2023/08/07 15:28:28;;;;;;;3.60;1.70;;;18.90;76.90;;;;;;4918730;29;20094;-87
2023/08/07 15:30:53;;;;;;;5.15;1.80;;;20.10;72.60;;;;;;4919029;29;20090;-88
2023/08/07 15:33:19;;;;;;;3.85;1.83;;;20.00;72.70;;;;;;4921913;29;20322;-87
2023/08/07 15:35:45;;;;;;;3.40;1.60;;;19.40;73.50;;;;;;4917339;29;20065;-87
2023/08/07 15:38:10;;;;;;;5.10;2.17;;;18.50;75.50;;;;;;4920818;29;20043;-86
2023/08/07 15:40:40;;;;;;;4.20;2.00;;;17.80;75.80;;;;;;4920955;29;20047;-86
2023/08/07 15:43:09;;;;;;;5.10;1.90;;;17.60;77.30;;;;;;4920545;29;20028;-86
2023/08/07 15:45:35;;;;;;;4.38;1.80;;;18.00;76.40;;;;;;4917400;29;20115;-86
2023/08/07 15:48:01;;;;;;;2.75;1.42;;;20.10;73.40;;;;;;4921039;29;20449;-86
2023/08/07 15:50:27;;;;;;;3.58;1.73;;;21.60;70.40;;;;;;4916181;29;20031;-86
2023/08/07 15:52:52;;;;;;;4.40;1.90;;;21.80;67.40;;;;;;4917985;29;20083;-87
2023/08/07 15:55:18;;;;;;;5.22;1.75;;;21.90;68.40;;;;;;4919834;29;20052;-87
2023/08/07 15:57:44;;;;;;;6.88;1.95;;;22.40;68.20;;;;;;4904223;29;20032;-87
2023/08/07 16:00:13;;;;;;;3.95;1.58;;;23.00;64.20;;;;;;4916443;29;20049;-87
2023/08/07 16:02:39;;;;;;;3.47;1.50;;;22.30;65.30;;;;;;4921353;29;20032;-86
2023/08/07 16:05:05;;;;;;;5.35;1.77;;;22.40;64.90;;;;;;4920749;29;20039;-85
2023/08/07 16:07:30;;;;;;;3.25;1.45;;;22.30;63.50;;;;;;4921146;29;20028;-86
2023/08/07 16:09:56;;;;;;;4.90;1.77;;;21.00;66.30;;;;;;4920635;29;20036;-86
2023/08/07 16:12:22;;;;;;;5.22;1.83;;;20.40;68.30;;;;;;4920065;29;20024;-86
2023/08/07 16:14:48;;;;;;;3.80;1.60;;;19.60;69.60;;;;;;4920998;29;20107;-86
2023/08/07 16:17:15;;;;;;;4.72;1.70;;;20.30;69.50;;;;;;4920243;29;20025;-86
2023/08/07 16:19:40;;;;;;;4.45;1.77;;;21.30;67.70;;;;;;4921485;29;20071;-86
2023/08/07 16:22:15;;;;;;;4.65;1.50;;;21.60;66.50;;;;;;4920436;29;20291;-86
2023/08/07 16:24:48;;;;;;;3.65;1.45;;;21.60;66.40;;;;;;4920726;29;20325;-86
2023/08/07 16:27:14;;;;;;;3.20;1.50;;;20.90;67.50;;;;;;4920865;29;20028;-85
2023/08/07 16:29:39;;;;;;;4.07;1.65;;;19.80;69.50;;;;;;4921078;29;20036;-85
2023/08/07 16:32:06;;;;;;;4.38;1.92;;;18.60;70.80;;;;;;4904573;29;20071;-85
2023/08/07 16:34:33;;;;;;;5.07;2.58;;;18.60;72.80;;;;;;4921591;29;20024;-86
2023/08/07 16:36:58;;;;;;;4.28;1.90;;;19.20;70.80;;;;;;4919636;29;20104;-85
2023/08/07 16:39:50;;;;;;;3.10;1.50;;;20.20;69.70;;;;;;4921520;29;20426;-85
2023/08/07 16:42:18;;;;;;;7.63;1.95;;;20.90;68.10;;;;;;4919821;29;20377;-85
2023/08/07 16:44:44;;;;;;;5.00;1.40;;;21.30;66.80;;;;;;4920449;29;20024;-85
2023/08/07 16:47:10;;;;;;;4.00;1.50;;;21.20;67.60;;;;;;4920450;29;20448;-84
2023/08/07 16:49:35;;;;;;;3.55;1.60;;;20.90;67.20;;;;;;4920871;29;20035;-86
2023/08/07 16:52:05;;;;;;;4.45;1.80;;;20.90;67.40;;;;;;4915726;29;20024;-88
2023/08/07 16:54:55;;;;;;;4.97;1.92;;;20.40;68.60;;;;;;4910039;29;20025;-85
2023/08/07 16:57:34;;;;;;;4.47;1.67;;;19.30;71.30;;;;;;4912907;29;20024;-84
2023/08/07 17:00:14;;;;;;;4.43;1.70;;;18.50;73.20;;;;;;4918216;29;20175;-85
2023/08/07 17:02:53;;;;;;;5.38;1.65;;;18.10;74.50;;;;;;4919799;29;20032;-84
2023/08/07 17:05:28;;;;;;;3.47;1.60;;;18.00;74.60;;;;;;4918118;29;20031;-85
2023/08/07 17:07:55;;;;;;;4.72;1.80;;;18.90;73.40;;;;;;4920007;29;20079;-84
2023/08/07 17:10:21;;;;;;;4.20;1.77;;;19.30;71.70;;;;;;4919316;29;20039;-85
2023/08/07 17:12:47;;;;;;;4.07;1.60;;;19.50;72.30;;;;;;4920735;29;20318;-85
2023/08/07 17:15:12;;;;;;;3.58;1.52;;;20.00;70.70;;;;;;4920464;29;20350;-85
2023/08/07 17:17:38;;;;;;;4.20;1.70;;;19.10;71.90;;;;;;4919850;29;20164;-84
2023/08/07 17:20:04;;;;;;;4.07;1.70;;;18.70;73.40;;;;;;4917846;29;20031;-83
2023/08/07 17:22:30;;;;;;;4.82;1.80;;;18.70;74.20;;;;;;4920057;29;20032;-86
2023/08/07 17:24:55;;;;;;;3.60;1.95;;;18.20;74.40;;;;;;4919534;29;20481;-85
2023/08/07 17:27:21;;;;;;;5.38;2.30;;;17.50;76.10;;;;;;4919582;29;20454;-85
2023/08/07 17:29:47;;;;;;;6.28;1.70;;;17.00;77.60;;;;;;4919249;29;20040;-85
2023/08/07 17:32:12;;;;;;;5.55;1.88;;;17.00;78.20;;;;;;4919563;29;20036;-85
2023/08/07 17:34:38;;;;;;;4.72;1.90;;;17.60;77.60;;;;;;4919159;29;20409;-85
2023/08/07 17:37:03;;;;;;;4.07;2.00;;;18.30;76.10;;;;;;4900308;29;20107;-84
2023/08/07 17:39:29;;;;;;;4.40;1.70;;;19.00;75.20;;;;;;4901249;29;20033;-85
2023/08/07 17:41:55;;;;;;;3.88;1.80;;;19.70;73.00;;;;;;4918585;29;20418;-85
2023/08/07 17:44:20;;;;;;;4.20;1.70;;;19.30;72.70;;;;;;4919774;29;20024;-85
2023/08/07 17:46:46;;;;;;;4.50;2.00;;;18.90;72.80;;;;;;4917823;29;20365;-85
2023/08/07 17:49:12;;;;;;;5.55;1.50;;;18.80;73.50;;;;;;4914084;29;20033;-86
2023/08/07 17:51:38;;;;;;;4.60;1.70;;;18.70;73.60;;;;;;4917016;29;20434;-85
2023/08/07 17:54:03;;;;;;;5.80;1.50;;;18.30;73.90;;;;;;4918789;29;20039;-85
2023/08/07 17:56:29;;;;;;;3.67;1.65;;;18.10;74.70;;;;;;4920687;29;20055;-86
2023/08/07 17:58:58;;;;;;;5.25;1.60;;;17.70;75.90;;;;;;4916710;29;20043;-85
2023/08/07 18:01:23;;;;;;;3.25;1.50;;;17.50;76.80;;;;;;4923007;29;20080;-84
2023/08/07 18:03:49;;;;;;;4.32;1.70;;;17.80;76.30;;;;;;4916473;29;20468;-85
2023/08/07 18:06:14;;;;;;;3.50;1.63;;;18.00;75.70;;;;;;4917822;29;20123;-85
2023/08/07 18:08:40;;;;;;;4.95;1.42;;;18.10;75.20;;;;;;4918551;29;20040;-85
2023/08/07 18:11:11;;;;;;;3.85;1.70;;;18.10;75.60;;;;;;4919674;29;20280;-84
2023/08/07 18:13:37;;;;;;;4.68;1.40;;;18.50;75.50;;;;;;4918813;29;20027;-84
2023/08/07 18:16:03;;;;;;;5.53;1.50;;;18.50;74.50;;;;;;4919953;29;20047;-85
2023/08/07 18:18:28;;;;;;;3.55;1.50;;;18.30;74.90;;;;;;4918805;29;20815;-87
2023/08/07 18:20:54;;;;;;;4.32;1.85;;;18.00;75.50;;;;;;4917579;29;20044;-87
2023/08/07 18:23:19;;;;;;;5.32;1.65;;;17.00;77.20;;;;;;4911453;29;20075;-86
2023/08/07 18:25:45;;;;;;;3.88;1.70;;;16.40;79.50;;;;;;4921064;29;20032;-86
2023/08/07 18:28:11;;;;;;;5.05;1.70;;;16.20;80.60;;;;;;4915816;29;20035;-85
2023/08/07 18:30:36;;;;;;;5.88;2.17;;;16.10;81.00;;;;;;4917943;29;20434;-85
2023/08/07 18:33:02;;;;;;;3.95;2.10;;;15.80;81.80;;;;;;4918559;29;20028;-85
2023/08/07 18:35:41;;;;;;;5.00;1.95;;;15.60;83.10;;;;;;4915604;29;20032;-85
2023/08/07 18:38:15;;;;;;;3.78;1.70;;;15.40;84.00;;;;;;4906621;29;20028;-85
2023/08/07 18:40:45;;;;;;;5.22;1.88;;;15.20;84.90;;;;;;4915051;29;20036;-86
2023/08/07 18:43:11;;;;;;;14.90;8.77;;;14.90;85.60;;;;;;4915620;29;20043;-85
2023/08/07 18:45:36;;;;;;;6.38;3.25;;;14.70;87.10;;;;;;4913762;29;20139;-85
2023/08/07 18:48:05;;;;;;;5.55;2.20;;;14.50;87.90;;;;;;4914213;29;20052;-85
2023/08/07 18:50:31;;;;;;;4.78;2.00;;;14.40;89.10;;;;;;4913351;29;20036;-85
2023/08/07 18:52:58;;;;;;;5.28;1.85;;;14.20;89.40;;;;;;4910844;29;20024;-85
2023/08/07 18:55:23;;;;;;;5.25;2.30;;;14.10;90.70;;;;;;4913823;29;20046;-86
2023/08/07 18:57:49;;;;;;;5.40;2.75;;;14.10;90.30;;;;;;4913431;29;20480;-86
2023/08/07 19:00:15;;;;;;;4.18;2.00;;;14.10;90.60;;;;;;4914501;29;20036;-87
2023/08/07 19:02:40;;;;;;;6.13;1.83;;;14.10;91.60;;;;;;4915998;29;20140;-86
2023/08/07 19:05:07;;;;;;;4.70;1.70;;;14.10;91.80;;;;;;4913832;29;20095;-87
2023/08/07 19:07:33;;;;;;;4.88;1.80;;;14.10;90.60;;;;;;4915584;29;20028;-86